Rosairo, Brazil
Current Conditions -  °F | °C
As of 11:00 PM on Friday 24 Oct 2014 (Local Time) from SBSL Reporting Station
Few Clouds Few Clouds  
Wind Chill: 81°   Ceiling: Unl
Heat Index: 85°   Visibility: 6mi
Dew Point: 72°   Wind: 15mph
Humidity: 74%   Direction: 50°NE
Pressure: 29.83"   Gusts: NA
Location:  2.65°S, 44.25°W
Report Text: SBSL 250200Z 05013KT 9999 FEW017 27/22 Q1010
Loading
Personal Weather Stations






























Interactive Weather Map
Tropical Storm Tracking
New forecast layout! Learn more

10-Day Weather Forecast

Advertisements
Track Severe Weather on mobile